Time;durP1;ratioP1;P1;durP2;ratioP2;P2;SDS_P1;SDS_P2;PMS_P1;PMS_P2;Temp;Humidity;BMP_temperature;BMP_pressure;BME280_temperature;BME280_humidity;BME280_pressure;Samples;Min_cycle;Max_cycle;Signal;HPM_P1;HPM_P2
2022/11/25 00:00:47;;;;;;;28.45;10.18;;;5.90;99.90;;;;;;4976550;28;20027;-49
2022/11/25 00:03:12;;;;;;;23.15;9.90;;;5.90;99.90;;;;;;4975893;28;20030;-48
2022/11/25 00:05:38;;;;;;;28.27;10.20;;;5.90;99.90;;;;;;4975942;28;20027;-47
2022/11/25 00:08:03;;;;;;;26.80;10.32;;;6.00;99.90;;;;;;4975732;28;20033;-45
2022/11/25 00:10:29;;;;;;;22.88;9.00;;;6.00;99.90;;;;;;4974620;28;20125;-50
2022/11/25 00:12:54;;;;;;;18.27;7.88;;;5.90;99.90;;;;;;4975372;28;20031;-51
2022/11/25 00:15:20;;;;;;;14.88;7.60;;;5.70;99.90;;;;;;4975691;28;20023;-50
2022/11/25 00:17:45;;;;;;;14.30;8.02;;;5.60;99.90;;;;;;4975403;28;20030;-51
2022/11/25 00:20:11;;;;;;;19.88;9.15;;;5.50;99.90;;;;;;4997065;23;20215;-46
2022/11/25 00:22:37;;;;;;;20.80;9.10;;;5.50;99.90;;;;;;4994494;28;20034;-46
2022/11/25 00:25:02;;;;;;;24.40;9.75;;;5.50;99.90;;;;;;4995067;28;20610;-46
2022/11/25 00:27:28;;;;;;;19.20;8.20;;;5.50;99.90;;;;;;4995048;28;20026;-45
2022/11/25 00:29:53;;;;;;;20.98;10.32;;;5.40;99.90;;;;;;5009787;28;20035;-44
2022/11/25 00:32:19;;;;;;;57.15;29.52;;;5.40;99.90;;;;;;4994075;28;20026;-44
2022/11/25 00:34:44;;;;;;;26.08;11.75;;;5.40;99.90;;;;;;4994894;28;20024;-45
2022/11/25 00:37:10;;;;;;;18.00;8.65;;;5.40;99.90;;;;;;4994693;28;20018;-46
2022/11/25 00:39:35;;;;;;;24.05;9.35;;;5.40;99.90;;;;;;4994671;28;20041;-49
2022/11/25 00:44:45;;;;;;;21.92;9.80;;;5.40;99.90;;;;;;4995087;28;20109;-43
2022/11/25 00:47:13;;;;;;;14.50;7.90;;;5.40;99.90;;;;;;4994991;28;20498;-45
2022/11/25 00:49:40;;;;;;;22.42;8.52;;;5.30;99.90;;;;;;4994801;28;20401;-47
2022/11/25 00:52:07;;;;;;;15.85;8.68;;;5.30;99.90;;;;;;4994120;28;20471;-45
2022/11/25 00:54:33;;;;;;;23.15;9.20;;;5.30;99.90;;;;;;4993682;28;20037;-49
2022/11/25 00:56:58;;;;;;;18.35;9.15;;;5.40;99.90;;;;;;5009386;28;20407;-43
2022/11/25 00:59:25;;;;;;;33.22;11.27;;;5.40;99.90;;;;;;4994264;28;20030;-46
2022/11/25 01:01:50;;;;;;;18.60;9.63;;;5.50;99.90;;;;;;4993986;28;20452;-47
2022/11/25 01:04:16;;;;;;;19.35;8.73;;;5.50;99.90;;;;;;4993744;28;20026;-49
2022/11/25 01:06:42;;;;;;;16.75;7.53;;;5.50;99.90;;;;;;4994196;28;20479;-45
2022/11/25 01:09:09;;;;;;;14.23;8.05;;;5.60;99.90;;;;;;4994063;28;20037;-44
2022/11/25 01:11:35;;;;;;;18.30;7.70;;;5.60;99.90;;;;;;4994095;28;20089;-45
2022/11/25 01:14:01;;;;;;;17.05;8.63;;;5.60;99.90;;;;;;4993350;28;20438;-44
2022/11/25 01:16:26;;;;;;;17.67;8.20;;;5.60;99.90;;;;;;4994004;28;20029;-49
2022/11/25 01:18:52;;;;;;;14.93;7.25;;;5.60;99.90;;;;;;4993970;28;20030;-44
2022/11/25 01:21:24;;;;;;;17.77;7.93;;;5.60;99.90;;;;;;4993711;28;20034;-44
2022/11/25 01:23:50;;;;;;;16.40;8.68;;;5.60;99.90;;;;;;4993344;28;20185;-46
2022/11/25 01:26:19;;;;;;;27.70;8.95;;;5.70;99.90;;;;;;4993793;28;20031;-44
2022/11/25 01:28:45;;;;;;;18.05;8.70;;;5.70;99.90;;;;;;4993891;28;20106;-46
2022/11/25 01:31:14;;;;;;;17.50;8.45;;;5.70;99.90;;;;;;4994249;28;20030;-49
2022/11/25 01:33:40;;;;;;;18.38;8.55;;;5.70;99.90;;;;;;4993282;28;20018;-44
2022/11/25 01:36:09;;;;;;;19.15;8.48;;;5.70;99.90;;;;;;4993972;28;20426;-45
2022/11/25 01:38:35;;;;;;;20.25;8.88;;;5.80;99.90;;;;;;4994083;28;20023;-48
2022/11/25 01:41:01;;;;;;;20.58;9.18;;;5.80;99.90;;;;;;4993573;28;20023;-44
2022/11/25 01:43:28;;;;;;;17.90;8.25;;;5.70;99.90;;;;;;4992607;28;20027;-48
2022/11/25 01:46:06;;;;;;;21.88;8.32;;;5.80;99.90;;;;;;4993412;28;20121;-48
2022/11/25 01:48:37;;;;;;;16.73;7.97;;;5.70;99.90;;;;;;4992770;28;20066;-47
2022/11/25 01:51:04;;;;;;;21.50;7.88;;;5.70;99.90;;;;;;4992270;28;20037;-46
2022/11/25 01:53:29;;;;;;;21.20;8.73;;;5.70;99.90;;;;;;4992838;28;20022;-44
2022/11/25 01:56:00;;;;;;;26.80;9.70;;;5.60;99.90;;;;;;4992496;28;20023;-47
2022/11/25 01:58:31;;;;;;;16.23;7.80;;;5.60;99.90;;;;;;4993178;28;20105;-48
2022/11/25 02:00:57;;;;;;;17.73;7.78;;;5.50;99.90;;;;;;4993395;28;20026;-45
2022/11/25 02:03:43;;;;;;;19.50;8.43;;;5.40;99.90;;;;;;4992636;28;20117;-48
2022/11/25 02:06:16;;;;;;;15.75;8.27;;;5.40;99.90;;;;;;4993087;28;20030;-44
2022/11/25 02:08:47;;;;;;;24.45;8.77;;;5.30;99.90;;;;;;4993037;28;20035;-45
2022/11/25 02:11:14;;;;;;;22.55;8.27;;;5.30;99.90;;;;;;4993223;28;20019;-48
2022/11/25 02:13:41;;;;;;;18.08;8.07;;;5.30;99.90;;;;;;4992218;28;20030;-47
2022/11/25 02:16:06;;;;;;;20.65;8.52;;;5.20;99.90;;;;;;4992961;28;20053;-44
2022/11/25 02:18:32;;;;;;;17.70;7.85;;;5.10;99.90;;;;;;4991502;28;20022;-44
2022/11/25 02:20:58;;;;;;;19.58;9.07;;;5.10;99.90;;;;;;4992819;28;20505;-47
2022/11/25 02:23:39;;;;;;;17.05;8.20;;;5.00;99.90;;;;;;4992145;28;20410;-45
2022/11/25 02:26:05;;;;;;;18.13;8.55;;;5.10;99.90;;;;;;4992862;28;20057;-47
2022/11/25 02:28:32;;;;;;;15.70;8.20;;;5.00;99.90;;;;;;4992796;28;20030;-47
2022/11/25 02:30:58;;;;;;;17.73;8.82;;;5.00;99.90;;;;;;4992700;28;20081;-49
2022/11/25 02:33:24;;;;;;;25.02;9.30;;;5.10;99.90;;;;;;4991775;28;20037;-45
2022/11/25 02:36:02;;;;;;;18.10;8.63;;;5.00;99.90;;;;;;4992828;28;20022;-48
2022/11/25 02:38:46;;;;;;;17.80;8.15;;;4.90;99.90;;;;;;4992699;28;20257;-44
2022/11/25 02:41:15;;;;;;;22.80;8.18;;;4.90;99.90;;;;;;4992516;28;20133;-45
2022/11/25 02:43:40;;;;;;;17.05;7.95;;;4.80;99.90;;;;;;4991698;28;20033;-45
2022/11/25 02:46:12;;;;;;;18.50;7.72;;;4.70;99.90;;;;;;5007455;28;20026;-46
2022/11/25 02:48:39;;;;;;;25.45;8.80;;;4.80;99.90;;;;;;4992549;28;20062;-45
2022/11/25 02:51:06;;;;;;;23.15;8.60;;;4.70;99.90;;;;;;4992301;28;20033;-45
2022/11/25 02:53:32;;;;;;;19.15;7.45;;;4.70;99.90;;;;;;4991754;28;20061;-47
2022/11/25 02:55:58;;;;;;;19.80;8.43;;;4.70;99.90;;;;;;4991250;28;20050;-44
2022/11/25 02:58:24;;;;;;;15.25;7.25;;;4.70;99.90;;;;;;4992288;28;20027;-48
2022/11/25 03:00:49;;;;;;;14.50;6.78;;;4.80;99.90;;;;;;4992164;28;20072;-47
2022/11/25 03:03:15;;;;;;;19.95;8.48;;;4.90;99.90;;;;;;4991614;28;20030;-44
2022/11/25 03:05:41;;;;;;;15.65;7.75;;;4.90;99.90;;;;;;4992287;28;20026;-45
2022/11/25 03:08:08;;;;;;;10.55;5.93;;;4.90;99.90;;;;;;4992152;28;20018;-47
2022/11/25 03:10:34;;;;;;;17.35;7.22;;;5.00;99.90;;;;;;4992084;28;20135;-50
2022/11/25 03:13:00;;;;;;;21.65;7.40;;;4.90;99.90;;;;;;4991763;28;20033;-46
2022/11/25 03:15:25;;;;;;;16.98;6.18;;;5.00;99.90;;;;;;4992204;28;20475;-47
2022/11/25 03:17:51;;;;;;;17.70;6.78;;;5.00;99.90;;;;;;4992148;28;20049;-45
2022/11/25 03:20:17;;;;;;;12.15;6.32;;;5.00;99.90;;;;;;4992061;28;20088;-45
2022/11/25 03:22:43;;;;;;;11.88;6.93;;;5.00;99.90;;;;;;4991543;28;20034;-47
2022/11/25 03:25:10;;;;;;;13.25;6.50;;;5.10;99.90;;;;;;4991993;28;20030;-47
2022/11/25 03:27:36;;;;;;;15.10;6.85;;;5.10;99.90;;;;;;4992104;28;20161;-45
2022/11/25 03:30:04;;;;;;;8.95;5.40;;;5.20;99.90;;;;;;4992027;28;20026;-46
2022/11/25 03:32:30;;;;;;;14.00;7.22;;;5.20;99.90;;;;;;4991204;28;20034;-45
2022/11/25 03:34:55;;;;;;;13.65;5.43;;;5.20;99.90;;;;;;4992146;28;20493;-46
2022/11/25 03:37:21;;;;;;;16.98;5.97;;;5.20;99.90;;;;;;4992091;28;20105;-45
2022/11/25 03:39:46;;;;;;;13.65;6.22;;;5.10;99.90;;;;;;4992037;28;20442;-44
2022/11/25 03:42:12;;;;;;;13.52;5.70;;;5.00;99.90;;;;;;4991380;28;20394;-45
2022/11/25 03:44:38;;;;;;;11.55;5.72;;;5.00;99.90;;;;;;4992451;28;20080;-45
2022/11/25 03:47:04;;;;;;;12.05;5.35;;;4.90;99.90;;;;;;4992107;28;20038;-44
2022/11/25 03:49:29;;;;;;;12.68;6.03;;;4.90;99.90;;;;;;4991926;28;20027;-45
2022/11/25 03:51:55;;;;;;;10.05;5.28;;;4.90;99.90;;;;;;4991508;28;20027;-43
2022/11/25 03:54:20;;;;;;;9.07;5.18;;;4.90;99.90;;;;;;4990231;28;20018;-45
2022/11/25 03:56:46;;;;;;;13.85;6.45;;;4.90;99.90;;;;;;4991814;28;20401;-45
2022/11/25 03:59:11;;;;;;;15.30;6.70;;;4.90;99.90;;;;;;4991953;28;20019;-43
2022/11/25 04:01:37;;;;;;;15.00;6.95;;;4.90;99.90;;;;;;4991891;28;20026;-47
2022/11/25 04:04:03;;;;;;;19.92;7.35;;;5.00;99.90;;;;;;4989773;28;20031;-45
2022/11/25 04:06:28;;;;;;;21.80;7.22;;;5.00;99.90;;;;;;4991809;28;20086;-46
2022/11/25 04:08:54;;;;;;;25.27;7.75;;;5.10;99.90;;;;;;4991712;28;20097;-45
2022/11/25 04:11:19;;;;;;;14.73;5.68;;;5.00;99.90;;;;;;4991738;28;20391;-45
2022/11/25 04:13:45;;;;;;;13.30;6.65;;;5.00;99.90;;;;;;4994667;28;20045;-44
2022/11/25 04:16:21;;;;;;;14.65;6.45;;;5.00;99.90;;;;;;4995070;28;20106;-45
2022/11/25 04:18:46;;;;;;;13.38;6.40;;;4.90;99.90;;;;;;4995429;28;20018;-45
2022/11/25 04:21:12;;;;;;;13.35;6.90;;;4.90;99.90;;;;;;4995286;28;20038;-45
2022/11/25 04:23:37;;;;;;;12.68;5.57;;;5.00;99.90;;;;;;4995279;28;20026;-44
2022/11/25 04:26:03;;;;;;;17.10;5.60;;;5.00;99.90;;;;;;4995000;28;20014;-46
2022/11/25 04:28:28;;;;;;;17.92;5.85;;;5.10;99.90;;;;;;4995208;28;20074;-45
2022/11/25 04:30:54;;;;;;;17.23;7.13;;;5.10;99.90;;;;;;4994702;28;20023;-48
2022/11/25 04:33:19;;;;;;;14.98;6.28;;;5.10;99.90;;;;;;4994075;28;20055;-46
2022/11/25 04:35:46;;;;;;;19.88;5.85;;;5.20;99.90;;;;;;4994856;28;20031;-45
2022/11/25 04:38:12;;;;;;;18.58;7.10;;;5.20;99.90;;;;;;4994760;28;20026;-47
2022/11/25 04:40:37;;;;;;;13.75;5.55;;;5.30;99.90;;;;;;4994597;28;20030;-50
2022/11/25 04:43:03;;;;;;;15.13;6.32;;;5.30;99.90;;;;;;4993678;28;20061;-46
2022/11/25 04:45:28;;;;;;;13.20;6.30;;;5.30;99.90;;;;;;4994490;28;20109;-44
2022/11/25 04:47:54;;;;;;;17.48;6.45;;;5.30;99.90;;;;;;4994502;28;20026;-47
2022/11/25 04:50:21;;;;;;;9.38;5.35;;;5.40;99.90;;;;;;4994337;28;20022;-45
2022/11/25 04:52:47;;;;;;;16.55;6.18;;;5.50;99.90;;;;;;5008888;28;20053;-48
2022/11/25 04:55:13;;;;;;;16.63;6.18;;;5.50;99.90;;;;;;4993244;28;20030;-48
2022/11/25 04:57:38;;;;;;;18.73;7.60;;;5.60;99.90;;;;;;4996532;28;20110;-47
2022/11/25 05:00:05;;;;;;;17.10;8.02;;;5.60;99.90;;;;;;4996312;28;20026;-47
2022/11/25 05:02:31;;;;;;;19.52;7.57;;;5.50;99.90;;;;;;4994443;28;20104;-50
2022/11/25 05:04:57;;;;;;;20.33;7.40;;;5.40;99.90;;;;;;4994966;28;20526;-48
2022/11/25 05:07:24;;;;;;;12.00;6.78;;;5.30;99.90;;;;;;4995328;28;20104;-45
2022/11/25 05:09:50;;;;;;;17.00;7.07;;;5.30;99.90;;;;;;4994897;28;20462;-44
2022/11/25 05:12:20;;;;;;;13.35;6.35;;;5.20;99.90;;;;;;4993916;28;20022;-47
2022/11/25 05:14:46;;;;;;;19.33;6.75;;;5.20;99.90;;;;;;4994069;28;20026;-51
2022/11/25 05:17:17;;;;;;;10.43;5.85;;;5.20;99.90;;;;;;4992826;28;20137;-49
2022/11/25 05:19:43;;;;;;;18.45;6.80;;;5.20;99.90;;;;;;4994354;28;20245;-46
2022/11/25 05:22:13;;;;;;;10.35;6.82;;;5.20;99.90;;;;;;4992992;28;20122;-42
2022/11/25 05:24:38;;;;;;;15.75;6.55;;;5.10;99.90;;;;;;4992581;28;20053;-47
2022/11/25 05:27:04;;;;;;;10.80;6.18;;;5.10;99.90;;;;;;4994485;28;20030;-47
2022/11/25 05:29:30;;;;;;;15.35;6.80;;;5.10;99.90;;;;;;4993640;28;20120;-48
2022/11/25 05:31:55;;;;;;;17.98;6.78;;;5.10;99.90;;;;;;4992985;28;20082;-46
2022/11/25 05:34:21;;;;;;;14.95;6.55;;;5.10;99.90;;;;;;4992721;28;20026;-45
2022/11/25 05:36:46;;;;;;;17.67;6.72;;;5.20;99.90;;;;;;4993798;28;20110;-49
2022/11/25 05:39:12;;;;;;;8.65;5.88;;;5.20;99.90;;;;;;4993699;28;20105;-49
2022/11/25 05:41:37;;;;;;;13.82;6.55;;;5.20;99.90;;;;;;4993571;28;20030;-45
2022/11/25 05:44:04;;;;;;;13.73;7.15;;;5.20;99.90;;;;;;4991833;28;20113;-52
2022/11/25 05:46:30;;;;;;;11.43;6.30;;;5.20;99.90;;;;;;4993484;28;20425;-50
2022/11/25 05:48:55;;;;;;;18.52;5.78;;;5.20;99.90;;;;;;4993498;28;20106;-49
2022/11/25 05:51:22;;;;;;;13.45;7.55;;;5.30;99.90;;;;;;4993613;28;20018;-47
2022/11/25 05:53:47;;;;;;;11.60;5.93;;;5.30;99.90;;;;;;4991381;28;20034;-45
2022/11/25 05:56:13;;;;;;;16.83;6.45;;;5.40;99.90;;;;;;4993459;28;20030;-47
2022/11/25 05:58:38;;;;;;;11.30;5.90;;;5.40;99.90;;;;;;4993588;28;20026;-46
2022/11/25 06:01:08;;;;;;;14.98;6.60;;;5.50;99.90;;;;;;4993492;28;20057;-44
2022/11/25 06:03:34;;;;;;;17.15;6.68;;;5.50;99.90;;;;;;4992638;28;20486;-44
2022/11/25 06:06:00;;;;;;;15.52;6.70;;;5.60;99.90;;;;;;4993364;28;20022;-48
2022/11/25 06:08:26;;;;;;;9.40;6.03;;;5.60;99.90;;;;;;4993084;28;20026;-49
2022/11/25 06:10:53;;;;;;;13.95;7.50;;;5.60;99.90;;;;;;4993088;28;20137;-44
2022/11/25 06:13:19;;;;;;;10.85;6.30;;;5.60;99.90;;;;;;4992186;28;20030;-44
2022/11/25 06:15:45;;;;;;;12.05;5.45;;;5.60;99.90;;;;;;4993031;28;20037;-46
2022/11/25 06:18:13;;;;;;;9.65;5.93;;;5.60;99.90;;;;;;4992877;28;20022;-45
2022/11/25 06:20:39;;;;;;;14.27;6.95;;;5.60;99.90;;;;;;4993888;28;20042;-46
2022/11/25 06:23:05;;;;;;;10.55;6.32;;;5.70;99.90;;;;;;4992218;28;20494;-47
2022/11/25 06:25:31;;;;;;;18.42;7.93;;;5.70;99.90;;;;;;5007870;28;20030;-44
2022/11/25 06:27:57;;;;;;;11.38;6.72;;;5.70;99.90;;;;;;4993636;28;20022;-45
2022/11/25 06:30:23;;;;;;;13.20;6.82;;;5.70;99.90;;;;;;4998015;28;20073;-45
2022/11/25 06:32:48;;;;;;;17.88;7.68;;;5.80;99.90;;;;;;4994029;28;20026;-47
2022/11/25 06:35:14;;;;;;;13.45;7.40;;;5.70;99.90;;;;;;4992663;28;20018;-45
2022/11/25 06:37:39;;;;;;;12.95;7.00;;;5.70;99.90;;;;;;4992574;28;20026;-44
2022/11/25 06:40:06;;;;;;;15.93;7.88;;;5.60;99.90;;;;;;4992187;28;20056;-45
2022/11/25 06:42:31;;;;;;;16.75;6.50;;;5.70;99.90;;;;;;4992074;28;20033;-48
2022/11/25 06:44:57;;;;;;;12.25;6.50;;;5.70;99.90;;;;;;4992334;28;20030;-47
2022/11/25 06:47:22;;;;;;;17.55;7.35;;;5.70;99.90;;;;;;4992161;28;20045;-46
2022/11/25 06:49:48;;;;;;;15.90;7.97;;;5.70;99.90;;;;;;4992132;28;20071;-45
2022/11/25 06:52:14;;;;;;;17.58;7.43;;;5.70;99.90;;;;;;4991506;28;20030;-48
2022/11/25 06:54:40;;;;;;;8.35;6.22;;;5.60;99.90;;;;;;4990710;28;20026;-44
2022/11/25 06:57:07;;;;;;;13.10;6.82;;;5.60;99.90;;;;;;4992168;28;20026;-47
2022/11/25 06:59:32;;;;;;;14.80;6.72;;;5.60;99.90;;;;;;4992245;28;20034;-44
2022/11/25 07:01:58;;;;;;;13.57;7.43;;;5.60;99.90;;;;;;4991364;28;20072;-47
2022/11/25 07:04:24;;;;;;;18.58;8.07;;;5.60;99.90;;;;;;4988079;28;20042;-46
2022/11/25 07:06:49;;;;;;;13.25;6.55;;;5.60;99.90;;;;;;4990774;28;20046;-51
2022/11/25 07:09:15;;;;;;;11.25;6.70;;;5.70;99.90;;;;;;4991681;28;20402;-47
2022/11/25 07:11:41;;;;;;;15.88;7.22;;;5.70;99.90;;;;;;4987072;28;20022;-50
2022/11/25 07:14:11;;;;;;;18.17;8.30;;;5.80;99.90;;;;;;4990348;28;20023;-48
2022/11/25 07:16:39;;;;;;;12.38;6.13;;;5.80;99.90;;;;;;4985481;28;20019;-50
2022/11/25 07:19:05;;;;;;;16.20;7.72;;;5.90;99.90;;;;;;4975729;28;20475;-46
2022/11/25 07:21:31;;;;;;;24.13;9.50;;;6.00;99.90;;;;;;4992261;28;20045;-45
2022/11/25 07:23:59;;;;;;;20.13;8.02;;;6.00;99.90;;;;;;4990756;28;20035;-45
2022/11/25 07:26:27;;;;;;;17.42;6.75;;;6.00;99.90;;;;;;4991899;28;20035;-45
2022/11/25 07:28:56;;;;;;;16.00;6.55;;;5.90;99.90;;;;;;4992042;28;20076;-45
2022/11/25 07:31:25;;;;;;;14.20;7.22;;;5.90;99.90;;;;;;4991987;28;20384;-45
2022/11/25 07:34:05;;;;;;;16.58;7.20;;;5.90;99.90;;;;;;4991119;28;20031;-45
2022/11/25 07:36:32;;;;;;;19.30;6.45;;;6.00;99.90;;;;;;5006921;28;20443;-47
2022/11/25 07:38:59;;;;;;;13.45;6.63;;;6.00;99.90;;;;;;4991991;28;20134;-48
2022/11/25 07:41:26;;;;;;;13.15;6.25;;;6.10;99.90;;;;;;4990627;28;20033;-52
2022/11/25 07:43:54;;;;;;;14.38;7.05;;;6.10;99.90;;;;;;4991127;28;20064;-51
2022/11/25 07:46:26;;;;;;;11.23;6.45;;;6.10;99.90;;;;;;4991700;28;20502;-53
2022/11/25 07:48:53;;;;;;;16.17;6.40;;;6.20;99.90;;;;;;4995534;28;20022;-49
2022/11/25 07:51:21;;;;;;;15.77;6.70;;;6.20;99.90;;;;;;4995597;28;20129;-51
2022/11/25 07:53:48;;;;;;;16.83;7.65;;;6.20;99.90;;;;;;4994338;28;20105;-49
2022/11/25 07:56:14;;;;;;;19.27;7.30;;;6.20;99.90;;;;;;4990705;28;20042;-51
2022/11/25 07:58:40;;;;;;;17.60;8.00;;;6.30;99.90;;;;;;4995336;28;20494;-54
2022/11/25 08:01:06;;;;;;;12.48;6.45;;;6.30;99.90;;;;;;4995430;28;20124;-57
2022/11/25 08:03:34;;;;;;;11.40;6.90;;;6.40;99.90;;;;;;4981667;28;20166;-48
2022/11/25 08:06:01;;;;;;;15.70;7.85;;;6.50;99.90;;;;;;4995115;28;20034;-53
2022/11/25 08:08:26;;;;;;;16.15;7.57;;;6.50;99.90;;;;;;4994945;28;20030;-49
2022/11/25 08:10:52;;;;;;;11.57;7.03;;;6.40;99.90;;;;;;4993735;28;20041;-52
2022/11/25 08:13:17;;;;;;;21.40;7.68;;;6.50;99.90;;;;;;5009480;28;20019;-52
2022/11/25 08:15:43;;;;;;;19.67;7.88;;;6.40;99.90;;;;;;4995281;28;20034;-51
2022/11/25 08:18:08;;;;;;;11.85;6.30;;;6.50;99.90;;;;;;4993761;28;20076;-50
2022/11/25 08:20:34;;;;;;;15.07;7.20;;;6.50;99.90;;;;;;4993443;28;20030;-48
2022/11/25 08:23:00;;;;;;;18.08;7.35;;;6.50;99.90;;;;;;4994400;28;20053;-49
2022/11/25 08:25:25;;;;;;;14.10;6.88;;;6.60;99.90;;;;;;4994913;28;20030;-48
2022/11/25 08:27:51;;;;;;;13.07;6.88;;;6.60;99.90;;;;;;4994895;28;20510;-50
2022/11/25 08:30:17;;;;;;;20.92;7.00;;;6.60;99.90;;;;;;4994965;28;20053;-49
2022/11/25 08:32:42;;;;;;;11.10;6.28;;;6.70;99.90;;;;;;4993154;28;20098;-51
2022/11/25 08:35:08;;;;;;;13.10;6.60;;;6.70;99.90;;;;;;4995041;28;20026;-50
2022/11/25 08:37:33;;;;;;;11.20;6.05;;;6.70;99.90;;;;;;4994551;28;20026;-53
2022/11/25 08:39:59;;;;;;;11.15;5.80;;;6.70;99.90;;;;;;4994824;28;20065;-49
2022/11/25 08:42:25;;;;;;;14.48;6.90;;;6.70;99.90;;;;;;4993585;28;20041;-51
2022/11/25 08:44:52;;;;;;;15.10;7.57;;;6.80;99.90;;;;;;4993515;28;20045;-54
2022/11/25 08:47:18;;;;;;;12.35;6.35;;;6.80;99.90;;;;;;4994653;28;20390;-53
2022/11/25 08:49:43;;;;;;;10.88;5.88;;;6.80;99.90;;;;;;4994332;28;20034;-51
2022/11/25 08:52:09;;;;;;;19.00;7.22;;;6.90;99.90;;;;;;4993803;28;20030;-54
2022/11/25 08:54:35;;;;;;;11.80;6.82;;;7.00;99.90;;;;;;4993525;28;20482;-53
2022/11/25 08:57:01;;;;;;;17.80;6.63;;;7.00;99.90;;;;;;4994245;28;20509;-50
2022/11/25 08:59:26;;;;;;;15.88;6.65;;;7.00;99.90;;;;;;4994313;28;20057;-56
2022/11/25 09:01:52;;;;;;;13.02;7.03;;;6.90;99.90;;;;;;4989548;28;20514;-52
2022/11/25 09:04:17;;;;;;;12.30;6.13;;;6.90;99.90;;;;;;4993415;28;20453;-51
2022/11/25 09:06:43;;;;;;;9.88;5.68;;;6.90;99.90;;;;;;4985712;28;20026;-55
2022/11/25 09:09:08;;;;;;;16.60;7.25;;;6.90;99.90;;;;;;4988118;28;20042;-51
2022/11/25 09:11:34;;;;;;;11.23;5.97;;;6.90;99.90;;;;;;4994142;28;20125;-48
2022/11/25 09:13:59;;;;;;;10.85;5.93;;;6.90;99.90;;;;;;4981570;28;20105;-48
2022/11/25 09:16:25;;;;;;;11.25;6.13;;;6.90;99.90;;;;;;4994067;28;20105;-54
2022/11/25 09:18:51;;;;;;;13.63;6.25;;;6.90;99.90;;;;;;4994046;28;20015;-49
2022/11/25 09:21:17;;;;;;;16.85;6.43;;;6.90;99.90;;;;;;4993944;28;20031;-50
2022/11/25 09:23:42;;;;;;;11.07;6.00;;;7.00;99.90;;;;;;4993602;28;20030;-50
2022/11/25 09:26:19;;;;;;;21.15;8.07;;;7.10;99.90;;;;;;4974854;28;20061;-50
2022/11/25 09:28:44;;;;;;;19.45;6.85;;;7.20;99.90;;;;;;4974680;28;20054;-49
2022/11/25 09:31:10;;;;;;;15.77;5.80;;;7.20;99.90;;;;;;4974736;28;20027;-52
2022/11/25 09:33:36;;;;;;;16.27;7.13;;;7.40;99.90;;;;;;4973775;28;20471;-50
2022/11/25 09:36:03;;;;;;;15.30;6.93;;;7.50;99.90;;;;;;4974492;28;20522;-50
2022/11/25 09:38:28;;;;;;;16.58;6.72;;;7.60;99.90;;;;;;4974558;28;20023;-55
2022/11/25 09:41:05;;;;;;;16.42;7.75;;;7.60;99.90;;;;;;4974347;28;20031;-51
2022/11/25 09:47:16;;;;;;;13.52;6.15;;;7.80;99.90;;;;;;4934992;28;20102;-54
2022/11/25 09:50:18;;;;;;;13.30;6.18;;;7.70;99.90;;;;;;4974294;28;20030;-55
2022/11/25 09:52:56;;;;;;;15.57;6.15;;;7.80;99.90;;;;;;4973412;28;20394;-55
2022/11/25 09:55:24;;;;;;;13.23;6.40;;;7.80;99.90;;;;;;4988978;28;20449;-53
2022/11/25 09:58:15;;;;;;;16.48;6.30;;;7.80;99.90;;;;;;4974120;28;20022;-55
2022/11/25 10:00:46;;;;;;;18.13;9.32;;;7.80;99.90;;;;;;4977659;28;20482;-51
2022/11/25 10:03:14;;;;;;;58.53;34.85;;;7.80;99.90;;;;;;4994010;28;20031;-53
2022/11/25 10:06:16;;;;;;;11.93;6.93;;;7.90;99.90;;;;;;5008002;28;20030;-52
2022/11/25 10:08:46;;;;;;;19.77;7.85;;;8.00;99.90;;;;;;4970226;28;20039;-55
2022/11/25 10:11:23;;;;;;;13.45;7.75;;;8.00;99.90;;;;;;5007441;28;20059;-50
2022/11/25 10:13:53;;;;;;;14.48;7.57;;;8.00;99.90;;;;;;4992521;28;20026;-48
2022/11/25 10:16:46;;;;;;;16.13;7.22;;;8.10;99.90;;;;;;4993069;28;20027;-49
2022/11/25 10:19:42;;;;;;;10.07;6.32;;;8.20;99.90;;;;;;5008272;28;20434;-52
2022/11/25 10:22:25;;;;;;;15.73;7.10;;;8.30;99.90;;;;;;4992131;28;20034;-52
2022/11/25 10:24:55;;;;;;;13.10;6.65;;;8.30;99.90;;;;;;5007937;28;20026;-49
2022/11/25 10:27:26;;;;;;;14.02;6.78;;;8.40;99.90;;;;;;4992717;28;20022;-55
2022/11/25 10:30:03;;;;;;;10.18;6.13;;;8.30;99.90;;;;;;4993129;28;20379;-52
2022/11/25 10:32:40;;;;;;;13.05;6.38;;;8.30;99.90;;;;;;4991224;28;20026;-50
2022/11/25 10:35:17;;;;;;;14.43;6.53;;;8.30;99.90;;;;;;4992746;28;20097;-52
2022/11/25 10:37:44;;;;;;;24.50;8.07;;;8.20;99.90;;;;;;5008364;28;20034;-49
2022/11/25 10:40:16;;;;;;;15.63;6.47;;;8.20;99.90;;;;;;5008004;28;20030;-54
2022/11/25 10:42:42;;;;;;;15.93;6.70;;;8.20;99.90;;;;;;4992064;28;20097;-53
2022/11/25 10:45:09;;;;;;;14.38;6.90;;;8.20;99.90;;;;;;4992352;28;20045;-55
2022/11/25 10:48:14;;;;;;;13.07;6.43;;;8.30;99.90;;;;;;4991667;28;20096;-49
2022/11/25 10:51:13;;;;;;;18.10;7.28;;;8.50;99.90;;;;;;4992464;28;20077;-54
2022/11/25 10:53:39;;;;;;;14.98;7.15;;;8.50;99.90;;;;;;5006666;28;20061;-49
2022/11/25 10:56:11;;;;;;;16.75;7.20;;;8.80;99.90;;;;;;4992230;28;20054;-52
2022/11/25 10:58:38;;;;;;;15.55;6.45;;;9.00;99.90;;;;;;5007612;28;20022;-52
2022/11/25 11:01:14;;;;;;;12.55;6.60;;;9.10;99.90;;;;;;5007385;28;20037;-51
2022/11/25 11:03:39;;;;;;;;;;;9.10;99.90;;;;;;4991840;28;20089;-54
2022/11/25 11:06:05;;;;;;;;;;;9.10;99.90;;;;;;4992377;28;20417;-53
2022/11/25 11:08:40;;;;;;;11.73;6.17;;;9.20;99.90;;;;;;4992432;28;19969;-50
2022/11/25 11:11:15;;;;;;;11.98;6.55;;;9.20;99.90;;;;;;4991434;28;20022;-51
2022/11/25 11:13:41;;;;;;;;;;;9.20;99.90;;;;;;4991678;28;20511;-51
2022/11/25 11:16:20;;;;;;;;;;;9.20;99.90;;;;;;4992360;28;19948;-53
2022/11/25 11:18:46;;;;;;;13.00;5.85;;;9.30;99.90;;;;;;5007122;28;19921;-55
2022/11/25 11:21:24;;;;;;;15.07;6.57;;;9.30;99.90;;;;;;4993111;28;20052;-54
2022/11/25 11:23:55;;;;;;;13.95;6.40;;;9.30;99.90;;;;;;5010758;28;20053;-55
2022/11/25 11:26:35;;;;;;;15.40;7.07;;;9.30;99.90;;;;;;4995953;28;20397;-51
2022/11/25 11:29:13;;;;;;;15.48;7.03;;;9.20;99.90;;;;;;4995712;28;20053;-50
2022/11/25 11:31:43;;;;;;;15.65;6.70;;;9.10;99.90;;;;;;4976753;28;20039;-49
2022/11/25 11:34:32;;;;;;;14.07;7.15;;;9.10;99.90;;;;;;4989374;28;20027;-52
2022/11/25 11:37:09;;;;;;;12.27;6.38;;;9.20;99.90;;;;;;4964053;28;20045;-51
2022/11/25 11:39:40;;;;;;;12.02;6.72;;;9.20;99.90;;;;;;5010791;28;20026;-55
2022/11/25 11:42:28;;;;;;;14.05;6.30;;;9.30;99.90;;;;;;4994955;28;20707;-54
2022/11/25 11:45:21;;;;;;;10.40;5.88;;;9.30;99.90;;;;;;4975090;28;20043;-49
2022/11/25 11:48:12;;;;;;;14.13;7.13;;;9.40;99.90;;;;;;4985182;28;20402;-50
2022/11/25 11:51:01;;;;;;;11.05;6.13;;;9.50;99.90;;;;;;4995372;28;20030;-51
2022/11/25 11:53:33;;;;;;;13.40;6.35;;;9.50;99.90;;;;;;4994627;28;20050;-53
2022/11/25 11:56:26;;;;;;;12.27;5.72;;;9.50;99.90;;;;;;4995335;28;20033;-53
2022/11/25 11:59:25;;;;;;;17.30;7.07;;;9.60;99.90;;;;;;4995510;28;20063;-51
2022/11/25 12:01:50;;;;;;;13.80;5.93;;;9.60;99.90;;;;;;4989640;28;20027;-51
2022/11/25 12:04:25;;;;;;;14.40;5.80;;;9.60;99.90;;;;;;4994446;28;20022;-51
2022/11/25 12:07:18;;;;;;;12.55;6.55;;;9.60;99.90;;;;;;4985752;28;20030;-49
2022/11/25 12:09:52;;;;;;;18.35;6.80;;;9.60;99.90;;;;;;4984729;28;20030;-50
2022/11/25 12:12:21;;;;;;;11.63;6.68;;;9.60;99.90;;;;;;5009658;28;20033;-51
2022/11/25 12:14:50;;;;;;;11.18;6.18;;;9.70;99.90;;;;;;4994598;28;20493;-49
2022/11/25 12:17:31;;;;;;;17.30;6.57;;;9.70;99.90;;;;;;4994922;28;20014;-53
2022/11/25 12:20:16;;;;;;;11.40;5.72;;;9.70;99.90;;;;;;4994653;28;20038;-51
2022/11/25 12:22:54;;;;;;;16.20;6.43;;;9.70;99.90;;;;;;4994867;28;20026;-50
2022/11/25 12:25:21;;;;;;;21.52;7.07;;;9.80;99.90;;;;;;4994617;28;20071;-48
2022/11/25 12:28:05;;;;;;;17.20;7.05;;;9.80;99.90;;;;;;4990767;28;20049;-51
2022/11/25 12:30:39;;;;;;;16.27;6.28;;;9.80;99.90;;;;;;4994930;28;20030;-50
2022/11/25 12:33:17;;;;;;;12.38;7.05;;;9.80;99.90;;;;;;4993623;28;20033;-51
2022/11/25 12:36:04;;;;;;;11.05;6.88;;;9.80;99.90;;;;;;4994597;28;20033;-53
2022/11/25 12:38:38;;;;;;;13.13;6.30;;;9.70;99.90;;;;;;4994475;28;20501;-53
2022/11/25 12:41:40;;;;;;;15.02;7.53;;;9.60;99.90;;;;;;4994399;28;20430;-54
2022/11/25 12:44:15;;;;;;;13.65;7.38;;;9.50;99.90;;;;;;4994743;28;20030;-55
2022/11/25 12:46:47;;;;;;;12.32;7.00;;;9.50;99.90;;;;;;5010106;28;20031;-55
2022/11/25 12:49:20;;;;;;;14.88;6.68;;;9.40;99.90;;;;;;4994340;28;20035;-51
2022/11/25 12:52:01;;;;;;;14.43;7.68;;;9.30;99.90;;;;;;5009772;28;20029;-54
2022/11/25 12:54:49;;;;;;;17.48;6.40;;;9.30;99.90;;;;;;4994419;28;20026;-50
2022/11/25 12:57:32;;;;;;;14.15;7.47;;;9.30;99.90;;;;;;4973678;28;20027;-52
2022/11/25 13:00:04;;;;;;;15.68;6.65;;;9.30;99.90;;;;;;4978013;28;20096;-60
2022/11/25 13:03:18;;;;;;;15.93;7.65;;;9.30;99.90;;;;;;4995978;28;20546;-55
2022/11/25 13:06:15;;;;;;;13.57;7.18;;;9.30;99.90;;;;;;4996290;28;20030;-56